Terminal Aerodrome Forecast
Issued by NWS Albany, NY

Home | Current Version | Previous Version | Text Only | Print | Product List | Glossary On
Versions: 1 2 3 4 5 6 7 8 9 10 11 12 13 14 15 16 17 18 19 20 21 22 23 24 25 26 27 28
000
FTUS41 KALY 221100
TAFPOU
TAF
KPOU 221131Z 2212/2312 02003KT P6SM VCSH OVC012
     FM221500 04003KT P6SM OVC015
     FM221800 07004KT P6SM OVC020
     FM230300 VRB02KT 4SM -RA BR OVC015
     FM230700 VRB02KT 2SM -RA BR OVC008=

USA.gov is the U.S. government's official web portal to all federal, state and local government web resources and services.